Terminal Aerodrome Forecast
Issued by NWS

Home | Current Version | Previous Version | Text Only | Print | Product List | Glossary On
Versions: 1 2 3 4 5 6 7 8 9 10 11 12 13
000
FTUS43 KAPX 200803 AAA
TAFMBL
TAF AMD
KMBL 200803Z 2008/2106 12005KT 6SM BR BKN008
     FM201500 15006KT P6SM SCT035
     FM210300 17005KT P6SM VCTS SCT040CB=

USA.gov is the U.S. government's official web portal to all federal, state and local government web resources and services.